createdAt,value
2022-08-19T00:01:53.491Z,81.22
2022-08-19T00:04:25.332Z,92.43
2022-08-19T00:06:53.855Z,92.07
2022-08-19T00:09:25.661Z,89.95
2022-08-19T00:11:56.619Z,85.25
2022-08-19T00:14:26.569Z,82.80
2022-08-19T00:16:55.799Z,89.50
2022-08-19T00:19:24.771Z,83.65
2022-08-19T00:21:53.607Z,89.32
2022-08-19T00:24:23.660Z,82.13
2022-08-19T00:26:52.296Z,87.32
2022-08-19T00:29:22.194Z,79.85
2022-08-19T00:31:51.156Z,86.65
2022-08-19T00:34:19.430Z,82.57
2022-08-19T00:36:48.301Z,91.20
2022-08-19T00:39:17.974Z,84.13
2022-08-19T00:41:49.827Z,72.82
2022-08-19T00:44:26.667Z,77.45
2022-08-19T00:46:58.114Z,76.75
2022-08-19T00:49:31.712Z,77.85
2022-08-19T00:52:04.273Z,78.18
2022-08-19T00:54:34.043Z,72.28
2022-08-19T00:57:07.246Z,80.93
2022-08-19T00:59:56.104Z,75.75
2022-08-19T01:02:28.194Z,75.22
2022-08-19T01:04:57.438Z,70.53
2022-08-19T01:07:25.842Z,76.25
2022-08-19T01:09:54.301Z,72.22
2022-08-19T01:12:24.548Z,67.60
2022-08-19T01:14:53.492Z,68.55
2022-08-19T01:17:22.422Z,74.90
2022-08-19T01:19:50.861Z,74.10
2022-08-19T01:22:30.192Z,71.28
2022-08-19T01:25:03.429Z,65.05
2022-08-19T01:27:42.173Z,63.65
2022-08-19T01:30:15.711Z,64.65
2022-08-19T01:32:44.508Z,60.72
2022-08-19T01:35:14.720Z,62.08
2022-08-19T01:37:52.572Z,63.67
2022-08-19T01:40:24.704Z,62.70
2022-08-19T01:42:53.942Z,54.70
2022-08-19T01:45:24.606Z,60.15
2022-08-19T01:48:01.305Z,66.00
2022-08-19T01:50:31.944Z,58.80
2022-08-19T01:53:06.060Z,68.80
2022-08-19T01:55:41.087Z,66.88
2022-08-19T01:58:13.114Z,61.35
2022-08-19T02:00:41.517Z,59.72
2022-08-19T02:03:10.275Z,65.03
2022-08-19T02:05:38.785Z,65.25
2022-08-19T02:08:07.560Z,58.63
2022-08-19T02:10:41.612Z,58.95
2022-08-19T02:13:09.872Z,58.08
2022-08-19T02:15:39.438Z,68.38
2022-08-19T02:18:08.382Z,66.43
2022-08-19T02:20:38.127Z,65.35
2022-08-19T02:23:13.934Z,66.05
2022-08-19T02:25:47.447Z,68.13
2022-08-19T02:28:18.733Z,63.35
2022-08-19T02:30:49.107Z,73.50
2022-08-19T02:33:18.270Z,70.70
2022-08-19T02:35:47.745Z,73.03
2022-08-19T02:38:28.999Z,77.65
2022-08-19T02:41:00.963Z,71.78
2022-08-19T02:43:32.245Z,73.32
2022-08-19T02:46:03.363Z,78.63
2022-08-19T02:48:34.015Z,76.85
2022-08-19T02:51:02.341Z,76.55
2022-08-19T02:53:30.918Z,78.07
2022-08-19T02:56:00.741Z,79.28
2022-08-19T02:58:28.918Z,80.07
2022-08-19T03:00:58.519Z,84.05
2022-08-19T03:03:26.995Z,71.85
2022-08-19T03:06:06.597Z,72.68
2022-08-19T03:08:34.827Z,72.88
2022-08-19T03:11:05.061Z,68.22
2022-08-19T03:13:33.860Z,63.83
2022-08-19T03:16:02.044Z,62.97
2022-08-19T03:18:30.347Z,68.63
2022-08-19T03:20:58.480Z,61.42
2022-08-19T03:23:26.698Z,70.03
2022-08-19T03:25:58.124Z,69.90
2022-08-19T03:28:34.010Z,63.85
2022-08-19T03:31:04.308Z,66.80
2022-08-19T03:33:53.376Z,72.18
2022-08-19T03:36:25.038Z,64.63
2022-08-19T03:38:59.613Z,56.00
2022-08-19T03:41:44.227Z,67.35
2022-08-19T03:44:17.820Z,60.97
2022-08-19T03:46:48.124Z,60.67
2022-08-19T03:49:18.422Z,61.38
2022-08-19T03:51:48.400Z,56.15
2022-08-19T03:54:20.520Z,62.47
2022-08-19T03:56:50.390Z,53.17
2022-08-19T03:59:26.908Z,61.58
2022-08-19T04:01:56.499Z,65.78
2022-08-19T04:04:25.544Z,54.75
2022-08-19T04:06:58.393Z,61.38
2022-08-19T04:09:27.955Z,58.95
2022-08-19T04:11:58.514Z,58.90
2022-08-19T04:14:31.076Z,62.20
2022-08-19T04:17:00.445Z,57.65
2022-08-19T04:19:31.198Z,61.20
2022-08-19T04:22:00.366Z,61.70
2022-08-19T04:24:29.724Z,52.17
2022-08-19T04:26:58.130Z,65.80
2022-08-19T04:29:28.390Z,57.17
2022-08-19T04:31:58.518Z,57.60
2022-08-19T04:34:28.408Z,60.08
2022-08-19T04:36:58.706Z,55.22
2022-08-19T04:39:49.430Z,56.38
2022-08-19T04:42:36.234Z,50.60
2022-08-19T04:45:09.376Z,56.47
2022-08-19T04:47:49.419Z,59.65
2022-08-19T04:50:27.501Z,52.45
2022-08-19T04:52:56.427Z,57.70
2022-08-19T04:55:26.624Z,60.95
2022-08-19T04:57:55.078Z,51.92
2022-08-19T05:00:25.669Z,60.08
2022-08-19T05:02:54.065Z,56.22
2022-08-19T05:05:22.457Z,51.33
2022-08-19T05:07:50.849Z,54.50
2022-08-19T05:10:19.828Z,63.40
2022-08-19T05:12:47.994Z,53.08
2022-08-19T05:15:17.398Z,57.97
2022-08-19T05:18:06.928Z,51.53
2022-08-19T05:20:52.377Z,57.97
2022-08-19T05:23:22.728Z,47.30
2022-08-19T05:25:52.640Z,52.53
2022-08-19T05:28:21.342Z,56.22
2022-08-19T05:30:51.786Z,56.75
2022-08-19T05:33:21.367Z,61.03
2022-08-19T05:35:50.457Z,59.45
2022-08-19T05:38:18.827Z,46.33
2022-08-19T05:40:47.978Z,41.75
2022-08-19T05:43:17.515Z,45.30
2022-08-19T05:45:46.526Z,49.83
2022-08-19T05:48:15.248Z,41.00
2022-08-19T05:50:46.339Z,45.17
2022-08-19T05:53:15.520Z,59.75
2022-08-19T05:55:44.192Z,49.03
2022-08-19T05:58:12.480Z,49.85
2022-08-19T06:00:45.674Z,56.72
2022-08-19T06:03:13.944Z,61.45
2022-08-19T06:05:52.019Z,65.90
2022-08-19T06:08:34.421Z,50.03
2022-08-19T06:11:19.994Z,54.25
2022-08-19T06:13:51.445Z,48.15
2022-08-19T06:16:23.395Z,58.97
2022-08-19T06:18:53.560Z,48.35
2022-08-19T06:21:25.118Z,42.47
2022-08-19T06:23:54.031Z,46.47
2022-08-19T06:26:23.055Z,38.60
2022-08-19T06:28:51.389Z,42.45
2022-08-19T06:31:22.332Z,45.20
2022-08-19T06:33:51.200Z,40.65
2022-08-19T06:36:33.417Z,51.67
2022-08-19T06:39:02.875Z,40.70
2022-08-19T06:41:32.380Z,37.63
2022-08-19T06:44:01.638Z,36.33
2022-08-19T06:46:31.674Z,29.08
2022-08-19T06:49:03.972Z,40.33
2022-08-19T06:51:35.427Z,33.25
2022-08-19T06:54:19.289Z,27.63
2022-08-19T06:56:48.529Z,21.48
2022-08-19T06:59:18.748Z,32.65
2022-08-19T07:01:51.140Z,17.65
2022-08-19T07:04:21.930Z,22.15
2022-08-19T07:06:54.886Z,26.40
2022-08-19T07:09:24.351Z,26.58
2022-08-19T07:11:54.697Z,25.50
2022-08-19T07:14:26.154Z,27.30
2022-08-19T07:16:56.689Z,20.23
2022-08-19T07:19:27.658Z,21.92
2022-08-19T07:21:57.922Z,22.60
2022-08-19T07:24:28.474Z,24.98
2022-08-19T07:27:03.742Z,22.20
2022-08-19T07:29:38.518Z,21.23
2022-08-19T07:32:07.748Z,19.60
2022-08-19T07:34:41.829Z,19.90
2022-08-19T07:37:12.728Z,19.45
2022-08-19T07:39:41.637Z,29.77
2022-08-19T07:42:13.291Z,23.15
2022-08-19T07:44:48.277Z,33.58
2022-08-19T07:47:48.810Z,19.13
2022-08-19T07:50:12.169Z,19.48
2022-08-19T07:52:44.507Z,23.38
2022-08-19T07:55:41.446Z,33.40
2022-08-19T07:58:06.904Z,32.22
2022-08-19T08:00:36.297Z,20.85
2022-08-19T08:03:04.817Z,22.55
2022-08-19T08:05:51.137Z,19.20
2022-08-19T08:08:43.853Z,24.55
2022-08-19T08:11:15.589Z,23.70
2022-08-19T08:13:44.502Z,29.05
2022-08-19T08:16:13.998Z,26.15
2022-08-19T08:18:50.342Z,24.95
2022-08-19T08:21:19.080Z,22.58
2022-08-19T08:23:49.053Z,19.15
2022-08-19T08:26:18.015Z,20.77
2022-08-19T08:28:49.586Z,25.73
2022-08-19T08:31:20.131Z,25.55
2022-08-19T08:33:50.110Z,18.42
2022-08-19T08:36:19.370Z,17.98
2022-08-19T08:38:49.202Z,19.58
2022-08-19T08:41:28.767Z,23.63
2022-08-19T08:43:58.321Z,22.45
2022-08-19T08:46:32.722Z,21.88
2022-08-19T08:49:09.765Z,16.70
2022-08-19T08:54:22.845Z,12.90
2022-08-19T08:56:53.818Z,11.10
2022-08-19T08:59:33.237Z,10.48
2022-08-19T09:02:01.722Z,10.15
2022-08-19T09:04:30.857Z,14.93
2022-08-19T09:07:34.572Z,13.00
2022-08-19T09:10:05.989Z,13.23
2022-08-19T09:12:44.707Z,11.30
2022-08-19T09:15:17.162Z,12.38
2022-08-19T09:17:45.518Z,14.23
2022-08-19T09:20:21.441Z,24.95
2022-08-19T09:22:50.597Z,11.40
2022-08-19T09:25:26.641Z,23.45
2022-08-19T09:28:02.417Z,16.23
2022-08-19T09:30:33.575Z,18.88
2022-08-19T09:33:02.367Z,26.00
2022-08-19T09:35:32.329Z,12.95
2022-08-19T09:38:18.545Z,8.07
2022-08-19T09:40:48.102Z,19.05
2022-08-19T09:43:33.346Z,8.88
2022-08-19T09:46:02.724Z,6.88
2022-08-19T09:48:31.042Z,7.20
2022-08-19T09:51:06.010Z,26.38
2022-08-19T09:53:34.784Z,19.55
2022-08-19T09:56:08.363Z,12.60
2022-08-19T09:58:38.416Z,21.05
2022-08-19T10:01:08.178Z,12.80
2022-08-19T10:03:38.675Z,14.43
2022-08-19T10:06:15.102Z,13.43
2022-08-19T10:08:49.932Z,8.35
2022-08-19T10:11:28.021Z,8.60
2022-08-19T10:14:06.805Z,8.95
2022-08-19T10:16:39.461Z,8.60
2022-08-19T10:19:08.078Z,8.75
2022-08-19T10:21:36.349Z,8.57
2022-08-19T10:24:07.077Z,9.10
2022-08-19T10:26:42.968Z,9.05
2022-08-19T10:29:12.762Z,9.10
2022-08-19T10:31:58.812Z,9.63
2022-08-19T10:34:31.312Z,8.55
2022-08-19T10:37:01.899Z,7.75
2022-08-19T10:39:32.621Z,9.40
2022-08-19T10:42:11.437Z,10.07
2022-08-19T10:44:40.488Z,8.45
2022-08-19T10:47:21.803Z,9.95
2022-08-19T10:50:12.381Z,9.77
2022-08-19T10:52:49.457Z,9.00
2022-08-19T10:55:38.729Z,10.80
2022-08-19T10:58:13.393Z,9.63
2022-08-19T11:00:42.851Z,10.82
2022-08-19T11:03:11.104Z,8.63
2022-08-19T11:05:40.579Z,8.45
2022-08-19T11:08:22.492Z,7.65
2022-08-19T11:10:54.602Z,8.95
2022-08-19T11:13:25.025Z,7.30
2022-08-19T11:16:07.308Z,7.60
2022-08-19T11:18:38.321Z,6.25
2022-08-19T11:21:12.314Z,4.43
2022-08-19T11:23:40.737Z,3.83
2022-08-19T11:26:09.328Z,3.38
2022-08-19T11:28:40.979Z,3.75
2022-08-19T11:31:13.649Z,3.90
2022-08-19T11:33:42.676Z,1.85
2022-08-19T11:36:17.058Z,2.45
2022-08-19T11:38:45.737Z,5.60
2022-08-19T11:41:13.982Z,1.10
2022-08-19T11:43:43.639Z,3.67
2022-08-19T11:46:16.450Z,2.00
2022-08-19T11:48:45.804Z,3.50
2022-08-19T11:51:16.785Z,1.45
2022-08-19T11:53:45.325Z,2.15
2022-08-19T11:56:14.745Z,2.78
2022-08-19T11:58:44.748Z,1.27
2022-08-19T12:01:14.721Z,1.67
2022-08-19T12:03:43.092Z,1.52
2022-08-19T12:06:15.698Z,4.55
2022-08-19T12:08:44.297Z,0.98
2022-08-19T12:11:14.666Z,2.47
2022-08-19T12:13:46.843Z,1.15
2022-08-19T12:16:18.198Z,1.73
2022-08-19T12:18:47.381Z,3.65
2022-08-19T12:21:15.880Z,1.85
2022-08-19T12:23:45.961Z,2.75
2022-08-19T12:26:14.369Z,3.60
2022-08-19T12:28:44.018Z,0.73
2022-08-19T12:31:13.493Z,0.95
2022-08-19T12:33:42.574Z,1.40
2022-08-19T12:36:12.911Z,0.90
2022-08-19T12:38:42.449Z,1.27
2022-08-19T12:41:13.709Z,1.27
2022-08-19T12:43:43.410Z,2.05
2022-08-19T12:46:12.626Z,2.80
2022-08-19T12:48:42.837Z,0.85
2022-08-19T12:51:13.152Z,1.58
2022-08-19T12:53:41.995Z,6.97
2022-08-19T12:56:12.735Z,2.08
2022-08-19T12:58:50.558Z,1.45
2022-08-19T13:01:23.497Z,4.03
2022-08-19T13:03:53.539Z,0.73
2022-08-19T13:06:22.393Z,0.45
2022-08-19T13:08:50.683Z,1.30
2022-08-19T13:11:20.880Z,6.40
2022-08-19T13:13:51.984Z,14.00
2022-08-19T13:16:23.273Z,5.90
2022-08-19T13:18:53.102Z,8.40
2022-08-19T13:21:23.865Z,3.58
2022-08-19T13:23:53.140Z,5.78
2022-08-19T13:26:22.010Z,6.47
2022-08-19T13:29:08.358Z,8.60
2022-08-19T13:31:58.885Z,5.68
2022-08-19T13:34:32.814Z,4.22
2022-08-19T13:37:03.922Z,7.40
2022-08-19T13:39:33.581Z,6.35
2022-08-19T13:42:02.849Z,5.85
2022-08-19T13:44:34.534Z,4.65
2022-08-19T13:47:08.086Z,6.43
2022-08-19T13:49:37.715Z,4.10
2022-08-19T13:52:07.017Z,4.28
2022-08-19T13:54:37.713Z,2.40
2022-08-19T13:57:06.106Z,5.75
2022-08-19T13:59:34.580Z,5.13
2022-08-19T14:02:06.471Z,2.60
2022-08-19T14:04:34.985Z,2.65
2022-08-19T14:07:03.316Z,3.80
2022-08-19T14:09:31.804Z,2.70
2022-08-19T14:12:00.040Z,2.65
2022-08-19T14:14:28.541Z,1.83
2022-08-19T14:16:56.828Z,1.73
2022-08-19T14:19:30.017Z,6.47
2022-08-19T14:21:59.203Z,2.97
2022-08-19T14:24:27.533Z,2.63
2022-08-19T14:26:56.882Z,3.95
2022-08-19T14:29:25.152Z,2.60
2022-08-19T14:31:53.311Z,3.28
2022-08-19T14:34:21.716Z,3.25
2022-08-19T14:36:51.383Z,2.60
2022-08-19T14:39:19.684Z,3.70
2022-08-19T14:41:48.026Z,3.55
2022-08-19T14:44:16.296Z,4.03
2022-08-19T14:46:49.289Z,3.25
2022-08-19T14:49:19.435Z,3.30
2022-08-19T14:51:48.516Z,4.40
2022-08-19T14:54:18.270Z,7.32
2022-08-19T14:56:46.841Z,5.18
2022-08-19T14:59:15.364Z,2.63
2022-08-19T15:01:44.081Z,2.40
2022-08-19T15:04:12.403Z,5.20
2022-08-19T15:06:41.007Z,4.65
2022-08-19T15:09:09.473Z,2.55
2022-08-19T15:11:39.745Z,2.90
2022-08-19T15:14:07.970Z,3.17
2022-08-19T15:16:36.429Z,3.83
2022-08-19T15:19:04.758Z,2.95
2022-08-19T15:21:33.356Z,2.42
2022-08-19T15:24:02.011Z,2.85
2022-08-19T15:26:33.301Z,3.85
2022-08-19T15:29:04.015Z,2.88
2022-08-19T15:31:38.296Z,3.53
2022-08-19T15:34:07.824Z,3.10
2022-08-19T15:36:37.191Z,4.10
2022-08-19T15:39:07.336Z,2.75
2022-08-19T15:41:36.983Z,1.98
2022-08-19T15:44:10.181Z,2.08
2022-08-19T15:46:41.900Z,3.00
2022-08-19T15:49:11.191Z,2.28
2022-08-19T15:51:41.868Z,2.13
2022-08-19T15:54:13.538Z,1.25
2022-08-19T15:57:01.866Z,1.40
2022-08-19T15:59:49.159Z,2.22
2022-08-19T16:02:37.282Z,1.40
2022-08-19T16:05:26.039Z,3.08
2022-08-19T16:07:54.662Z,10.82
2022-08-19T16:10:27.410Z,2.45
2022-08-19T16:12:57.556Z,4.22
2022-08-19T16:15:28.915Z,2.85
2022-08-19T16:17:57.840Z,3.92
2022-08-19T16:20:27.932Z,3.22
2022-08-19T16:22:58.456Z,4.82
2022-08-19T16:25:28.985Z,1.75
2022-08-19T16:28:07.258Z,1.38
2022-08-19T16:30:39.570Z,1.77
2022-08-19T16:33:09.221Z,2.95
2022-08-19T16:35:38.336Z,3.65
2022-08-19T16:38:07.090Z,2.55
2022-08-19T16:40:36.594Z,3.67
2022-08-19T16:43:05.154Z,2.78
2022-08-19T16:45:33.611Z,1.80
2022-08-19T16:48:03.919Z,3.97
2022-08-19T16:50:48.823Z,2.90
2022-08-19T16:53:20.055Z,2.97
2022-08-19T16:55:50.707Z,2.72
2022-08-19T16:58:19.501Z,4.57
2022-08-19T17:00:48.661Z,5.05
2022-08-19T17:03:19.777Z,7.32
2022-08-19T17:06:04.031Z,4.20
2022-08-19T17:08:34.268Z,3.63
2022-08-19T17:11:17.666Z,6.43
2022-08-19T17:13:47.599Z,4.32
2022-08-19T17:16:16.233Z,5.57
2022-08-19T17:18:46.096Z,6.38
2022-08-19T17:21:14.336Z,3.72
2022-08-19T17:23:44.037Z,2.88
2022-08-19T17:26:17.214Z,4.43
2022-08-19T17:28:49.079Z,5.93
2022-08-19T17:31:18.404Z,2.25
2022-08-19T17:33:48.979Z,3.05
2022-08-19T17:36:18.363Z,3.97
2022-08-19T17:38:46.958Z,4.15
2022-08-19T17:41:15.224Z,3.83
2022-08-19T17:43:44.309Z,4.88
2022-08-19T17:46:17.649Z,5.28
2022-08-19T17:48:52.195Z,3.97
2022-08-19T17:51:23.822Z,4.07
2022-08-19T17:53:54.634Z,5.38
2022-08-19T17:56:24.068Z,7.05
2022-08-19T17:59:00.760Z,5.65
2022-08-19T18:01:52.373Z,8.02
2022-08-19T18:04:20.972Z,7.18
2022-08-19T18:06:53.283Z,4.68
2022-08-19T18:09:24.806Z,7.18
2022-08-19T18:11:54.843Z,3.65
2022-08-19T18:14:32.023Z,8.68
2022-08-19T18:17:02.898Z,7.90
2022-08-19T18:19:41.525Z,5.28
2022-08-19T18:22:12.096Z,6.20
2022-08-19T18:24:41.031Z,4.55
2022-08-19T18:27:10.057Z,5.88
2022-08-19T18:29:40.217Z,7.68
2022-08-19T18:32:13.369Z,7.47
2022-08-19T18:34:45.858Z,4.05
2022-08-19T18:37:14.342Z,9.55
2022-08-19T18:40:00.063Z,8.90
2022-08-19T18:42:46.162Z,11.55
2022-08-19T18:45:31.866Z,8.00
2022-08-19T18:48:27.118Z,7.65
2022-08-19T18:50:58.435Z,6.50
2022-08-19T18:53:28.013Z,10.95
2022-08-19T18:55:56.658Z,16.90
2022-08-19T18:58:26.671Z,17.85
2022-08-19T19:00:57.333Z,10.18
2022-08-19T19:03:26.758Z,13.73
2022-08-19T19:05:55.247Z,11.10
2022-08-19T19:08:27.178Z,9.20
2022-08-19T19:10:58.932Z,9.93
2022-08-19T19:13:29.734Z,7.00
2022-08-19T19:15:58.015Z,6.53
2022-08-19T19:18:26.501Z,4.75
2022-08-19T19:20:54.775Z,3.75
2022-08-19T19:23:24.485Z,3.35
2022-08-19T19:25:53.403Z,8.65
2022-08-19T19:28:25.623Z,10.50
2022-08-19T19:30:55.198Z,8.52
2022-08-19T19:33:23.485Z,11.30
2022-08-19T19:35:51.672Z,6.75
2022-08-19T19:38:19.925Z,5.55
2022-08-19T19:40:49.497Z,2.22
2022-08-19T19:43:18.473Z,2.58
2022-08-19T19:45:49.012Z,1.10
2022-08-19T19:48:17.334Z,6.82
2022-08-19T19:50:46.502Z,2.15
2022-08-19T19:53:22.962Z,5.45
2022-08-19T19:55:54.711Z,2.20
2022-08-19T19:58:28.404Z,3.42
2022-08-19T20:00:58.654Z,5.07
2022-08-19T20:03:28.079Z,7.13
2022-08-19T20:05:59.515Z,6.00
2022-08-19T20:08:46.426Z,8.10
2022-08-19T20:11:31.241Z,3.45
2022-08-19T20:14:02.313Z,5.20
2022-08-19T20:16:31.042Z,3.28
2022-08-19T20:19:00.725Z,4.72
2022-08-19T20:21:32.432Z,3.75
2022-08-19T20:24:08.976Z,6.82
2022-08-19T20:26:39.561Z,2.88
2022-08-19T20:29:13.809Z,2.20
2022-08-19T20:31:57.289Z,1.65
2022-08-19T20:34:28.958Z,2.80
2022-08-19T20:36:57.165Z,3.97
2022-08-19T20:39:25.487Z,4.15
2022-08-19T20:41:56.524Z,2.33
2022-08-19T20:44:26.822Z,4.55
2022-08-19T20:46:58.492Z,2.88
2022-08-19T20:49:29.363Z,2.60
2022-08-19T20:51:58.529Z,2.33
2022-08-19T20:54:27.340Z,4.07
2022-08-19T20:56:56.959Z,2.10
2022-08-19T20:59:25.881Z,3.33
2022-08-19T21:01:55.345Z,4.25
2022-08-19T21:04:23.811Z,4.72
2022-08-19T21:06:52.240Z,5.18
2022-08-19T21:09:20.476Z,5.03
2022-08-19T21:11:49.204Z,10.45
2022-08-19T21:14:19.511Z,5.57
2022-08-19T21:16:47.851Z,8.15
2022-08-19T21:19:18.277Z,5.05
2022-08-19T21:21:49.336Z,4.38
2022-08-19T21:24:17.633Z,5.45
2022-08-19T21:26:49.471Z,5.53
2022-08-19T21:29:21.170Z,7.07
2022-08-19T21:31:50.232Z,6.07
2022-08-19T21:34:18.808Z,9.48
2022-08-19T21:36:47.121Z,9.70
2022-08-19T21:39:17.317Z,8.35
2022-08-19T21:41:48.542Z,7.93
2022-08-19T21:44:16.770Z,10.40
2022-08-19T21:46:50.537Z,11.75
2022-08-19T21:49:19.623Z,10.63
2022-08-19T21:51:48.071Z,9.52
2022-08-19T21:54:16.240Z,12.70
2022-08-19T21:56:44.466Z,11.07
2022-08-19T21:59:12.733Z,11.02
2022-08-19T22:01:43.921Z,10.32
2022-08-19T22:04:17.493Z,12.13
2022-08-19T22:06:45.986Z,7.80
2022-08-19T22:09:14.443Z,10.27
2022-08-19T22:11:44.367Z,8.57
2022-08-19T22:14:12.686Z,7.47
2022-08-19T22:16:40.971Z,14.30
2022-08-19T22:19:09.991Z,8.23
2022-08-19T22:21:40.889Z,8.45
2022-08-19T22:24:10.349Z,13.98
2022-08-19T22:26:40.710Z,7.60
2022-08-19T22:29:09.772Z,7.95
2022-08-19T22:31:38.662Z,11.55
2022-08-19T22:34:08.064Z,13.07
2022-08-19T22:36:36.306Z,8.20
2022-08-19T22:39:06.873Z,11.40
2022-08-19T22:41:35.178Z,9.88
2022-08-19T22:44:03.895Z,11.55
2022-08-19T22:46:33.703Z,14.25
2022-08-19T22:49:02.058Z,12.90
2022-08-19T22:51:47.514Z,12.77
2022-08-19T22:54:17.314Z,7.90
2022-08-19T22:56:45.555Z,15.32
2022-08-19T22:59:13.768Z,10.77
2022-08-19T23:01:42.748Z,11.32
2022-08-19T23:04:11.737Z,14.02
2022-08-19T23:06:42.185Z,15.88
2022-08-19T23:09:11.400Z,13.90
2022-08-19T23:11:47.456Z,16.73
2022-08-19T23:14:17.589Z,19.70
2022-08-19T23:16:51.021Z,12.00
2022-08-19T23:19:20.483Z,8.50
2022-08-19T23:21:48.909Z,8.50
2022-08-19T23:24:17.160Z,14.30
2022-08-19T23:27:00.900Z,17.35
2022-08-19T23:29:47.321Z,14.45
2022-08-19T23:32:17.769Z,13.57
2022-08-19T23:34:46.220Z,16.40
2022-08-19T23:37:14.671Z,18.55
2022-08-19T23:39:43.544Z,14.23
2022-08-19T23:42:15.082Z,16.05
2022-08-19T23:44:51.582Z,21.10
2022-08-19T23:47:22.183Z,17.70
2022-08-19T23:49:50.718Z,19.92
2022-08-19T23:52:19.085Z,11.95
2022-08-19T23:54:47.320Z,18.20
2022-08-19T23:57:16.930Z,26.73
2022-08-19T23:59:46.167Z,19.70
